sensor_id;sensor_type;location;lat;lon;timestamp;pressure;altitude;pressure_sealevel;temperature;humidity
82388;BME280;72027;47.420;9.310;2024-02-26T00:02:28;91454.69;;;5.26;49.01
82388;BME280;72027;47.420;9.310;2024-02-26T00:04:55;91451.75;;;5.29;48.99
82388;BME280;72027;47.420;9.310;2024-02-26T00:07:23;91445.28;;;5.33;47.78
82388;BME280;72027;47.420;9.310;2024-02-26T00:09:51;91450.09;;;5.38;47.97
82388;BME280;72027;47.420;9.310;2024-02-26T00:12:18;91454.63;;;5.41;47.87
82388;BME280;72027;47.420;9.310;2024-02-26T00:14:46;91452.63;;;5.41;48.64
82388;BME280;72027;47.420;9.310;2024-02-26T00:17:16;91450.91;;;5.44;47.22
82388;BME280;72027;47.420;9.310;2024-02-26T00:19:45;91449.28;;;5.52;46.41
82388;BME280;72027;47.420;9.310;2024-02-26T00:22:13;91457.91;;;5.65;45.80
82388;BME280;72027;47.420;9.310;2024-02-26T00:24:40;91463.75;;;5.73;46.40
82388;BME280;72027;47.420;9.310;2024-02-26T00:27:08;91455.56;;;5.79;46.31
82388;BME280;72027;47.420;9.310;2024-02-26T00:29:36;91447.88;;;5.83;46.98
82388;BME280;72027;47.420;9.310;2024-02-26T00:32:04;91452.41;;;5.86;46.24
82388;BME280;72027;47.420;9.310;2024-02-26T00:34:32;91450.13;;;5.84;47.45
82388;BME280;72027;47.420;9.310;2024-02-26T00:37:02;91447.09;;;5.82;47.90
82388;BME280;72027;47.420;9.310;2024-02-26T00:39:29;91450.13;;;5.84;46.57
82388;BME280;72027;47.420;9.310;2024-02-26T00:41:57;91449.72;;;5.91;45.21
82388;BME280;72027;47.420;9.310;2024-02-26T00:44:25;91441.25;;;5.95;46.17
82388;BME280;72027;47.420;9.310;2024-02-26T00:46:53;91440.78;;;5.97;46.08
82388;BME280;72027;47.420;9.310;2024-02-26T00:49:20;91443.25;;;5.94;47.60
82388;BME280;72027;47.420;9.310;2024-02-26T00:51:48;91437.47;;;5.92;48.08
82388;BME280;72027;47.420;9.310;2024-02-26T00:54:17;91438.66;;;5.86;49.09
82388;BME280;72027;47.420;9.310;2024-02-26T00:56:45;91433.09;;;5.80;49.15
82388;BME280;72027;47.420;9.310;2024-02-26T00:59:13;91432.03;;;5.72;50.86
82388;BME280;72027;47.420;9.310;2024-02-26T01:01:41;91437.44;;;5.66;50.66
82388;BME280;72027;47.420;9.310;2024-02-26T01:04:09;91438.16;;;5.61;50.62
82388;BME280;72027;47.420;9.310;2024-02-26T01:06:36;91444.34;;;5.56;51.20
82388;BME280;72027;47.420;9.310;2024-02-26T01:09:04;91427.03;;;5.50;50.27
82388;BME280;72027;47.420;9.310;2024-02-26T01:11:33;91434.72;;;5.46;50.96
82388;BME280;72027;47.420;9.310;2024-02-26T01:14:01;91422.22;;;5.45;50.48
82388;BME280;72027;47.420;9.310;2024-02-26T01:16:30;91423.47;;;5.44;51.86
82388;BME280;72027;47.420;9.310;2024-02-26T01:18:58;91415.44;;;5.40;50.10
82388;BME280;72027;47.420;9.310;2024-02-26T01:21:26;91414.19;;;5.41;50.94
82388;BME280;72027;47.420;9.310;2024-02-26T01:23:55;91419.41;;;5.39;50.13
82388;BME280;72027;47.420;9.310;2024-02-26T01:26:23;91421.91;;;5.37;51.03
82388;BME280;72027;47.420;9.310;2024-02-26T01:28:52;91411.09;;;5.34;52.05
82388;BME280;72027;47.420;9.310;2024-02-26T01:31:21;91413.56;;;5.32;52.48
82388;BME280;72027;47.420;9.310;2024-02-26T01:33:49;91414.06;;;5.30;50.36
82388;BME280;72027;47.420;9.310;2024-02-26T01:36:17;91417.09;;;5.32;50.70
82388;BME280;72027;47.420;9.310;2024-02-26T01:38:44;91415.84;;;5.33;50.88
82388;BME280;72027;47.420;9.310;2024-02-26T01:41:13;91417.09;;;5.32;51.36
82388;BME280;72027;47.420;9.310;2024-02-26T01:43:41;91419.34;;;5.34;49.59
82388;BME280;72027;47.420;9.310;2024-02-26T01:46:12;91422.66;;;5.38;49.54
82388;BME280;72027;47.420;9.310;2024-02-26T01:48:41;91415.44;;;5.40;50.04
82388;BME280;72027;47.420;9.310;2024-02-26T01:51:10;91416.47;;;5.43;50.01
82388;BME280;72027;47.420;9.310;2024-02-26T01:53:40;91424.50;;;5.46;49.59
82388;BME280;72027;47.420;9.310;2024-02-26T01:56:08;91418.53;;;5.48;51.08
82388;BME280;72027;47.420;9.310;2024-02-26T01:58:36;91417.75;;;5.47;50.54
82388;BME280;72027;47.420;9.310;2024-02-26T02:01:05;91424.78;;;5.48;49.84
82388;BME280;72027;47.420;9.310;2024-02-26T02:03:34;91412.53;;;5.49;50.94
82388;BME280;72027;47.420;9.310;2024-02-26T02:06:02;91426.00;;;5.47;51.47
82388;BME280;72027;47.420;9.310;2024-02-26T02:08:31;91422.03;;;5.48;50.34
82388;BME280;72027;47.420;9.310;2024-02-26T02:11:01;91424.03;;;5.48;51.02
82388;BME280;72027;47.420;9.310;2024-02-26T02:13:30;91427.97;;;5.47;52.52
82388;BME280;72027;47.420;9.310;2024-02-26T02:15:57;91429.91;;;5.41;54.85
82388;BME280;72027;47.420;9.310;2024-02-26T02:18:25;91430.31;;;5.34;56.11
82388;BME280;72027;47.420;9.310;2024-02-26T02:20:54;91427.78;;;5.30;52.55
82388;BME280;72027;47.420;9.310;2024-02-26T02:23:26;91430.25;;;5.28;53.16
82388;BME280;72027;47.420;9.310;2024-02-26T02:25:54;91429.97;;;5.26;54.72
82388;BME280;72027;47.420;9.310;2024-02-26T02:28:23;91430.94;;;5.23;54.08
82388;BME280;72027;47.420;9.310;2024-02-26T02:30:52;91427.16;;;5.20;54.83
82388;BME280;72027;47.420;9.310;2024-02-26T02:33:20;91424.91;;;5.19;55.93
82388;BME280;72027;47.420;9.310;2024-02-26T02:35:48;91434.59;;;5.14;57.44
82388;BME280;72027;47.420;9.310;2024-02-26T02:38:20;91441.03;;;5.11;57.78
82388;BME280;72027;47.420;9.310;2024-02-26T02:40:47;91443.97;;;5.07;58.33
82388;BME280;72027;47.420;9.310;2024-02-26T02:43:15;91446.16;;;5.03;58.55
82388;BME280;72027;47.420;9.310;2024-02-26T02:45:43;91449.59;;;4.98;60.00
82388;BME280;72027;47.420;9.310;2024-02-26T02:48:11;91448.75;;;4.92;59.56
82388;BME280;72027;47.420;9.310;2024-02-26T02:50:39;91446.97;;;4.89;56.50
82388;BME280;72027;47.420;9.310;2024-02-26T02:53:07;91450.94;;;4.88;57.06
82388;BME280;72027;47.420;9.310;2024-02-26T02:55:35;91451.22;;;4.90;57.25
82388;BME280;72027;47.420;9.310;2024-02-26T02:58:02;91449.44;;;4.87;55.00
82388;BME280;72027;47.420;9.310;2024-02-26T03:00:30;91448.41;;;4.84;55.24
82388;BME280;72027;47.420;9.310;2024-02-26T03:02:58;91452.09;;;4.81;54.67
82388;BME280;72027;47.420;9.310;2024-02-26T03:05:26;91458.53;;;4.78;56.07
82388;BME280;72027;47.420;9.310;2024-02-26T03:07:54;91455.69;;;4.73;58.81
82388;BME280;72027;47.420;9.310;2024-02-26T03:10:21;91456.13;;;4.66;58.60
82388;BME280;72027;47.420;9.310;2024-02-26T03:12:51;91450.72;;;4.56;56.39
82388;BME280;72027;47.420;9.310;2024-02-26T03:15:18;91443.16;;;4.51;54.69
82388;BME280;72027;47.420;9.310;2024-02-26T03:17:46;91446.88;;;4.48;54.57
82388;BME280;72027;47.420;9.310;2024-02-26T03:20:14;91448.56;;;4.46;52.78
82388;BME280;72027;47.420;9.310;2024-02-26T03:22:45;91448.38;;;4.49;53.77
82388;BME280;72027;47.420;9.310;2024-02-26T03:25:12;91445.91;;;4.51;53.50
82388;BME280;72027;47.420;9.310;2024-02-26T03:27:40;91433.72;;;4.52;54.69
82388;BME280;72027;47.420;9.310;2024-02-26T03:30:10;91438.91;;;4.50;55.00
82388;BME280;72027;47.420;9.310;2024-02-26T03:32:38;91437.88;;;4.48;58.20
82388;BME280;72027;47.420;9.310;2024-02-26T03:35:06;91433.53;;;4.41;58.98
82388;BME280;72027;47.420;9.310;2024-02-26T03:37:34;91431.75;;;4.38;59.88
82388;BME280;72027;47.420;9.310;2024-02-26T03:40:02;91436.69;;;4.34;59.94
82388;BME280;72027;47.420;9.310;2024-02-26T03:42:30;91430.34;;;4.28;60.45
82388;BME280;72027;47.420;9.310;2024-02-26T03:44:58;91419.13;;;4.26;60.64
82388;BME280;72027;47.420;9.310;2024-02-26T03:47:27;91415.50;;;4.19;63.32
82388;BME280;72027;47.420;9.310;2024-02-26T03:49:55;91403.25;;;4.15;62.93
82388;BME280;72027;47.420;9.310;2024-02-26T03:52:23;91392.66;;;4.08;63.69
82388;BME280;72027;47.420;9.310;2024-02-26T03:54:50;91393.53;;;3.99;64.25
82388;BME280;72027;47.420;9.310;2024-02-26T03:57:18;91393.41;;;3.93;64.49
82388;BME280;72027;47.420;9.310;2024-02-26T03:59:46;91393.16;;;3.91;63.99
82388;BME280;72027;47.420;9.310;2024-02-26T04:02:14;91388.88;;;3.90;63.85
82388;BME280;72027;47.420;9.310;2024-02-26T04:04:43;91390.31;;;3.86;64.17
82388;BME280;72027;47.420;9.310;2024-02-26T04:07:11;91379.06;;;3.84;63.55
82388;BME280;72027;47.420;9.310;2024-02-26T04:09:39;91383.81;;;3.83;63.38
82388;BME280;72027;47.420;9.310;2024-02-26T04:12:07;91388.25;;;3.81;63.84
82388;BME280;72027;47.420;9.310;2024-02-26T04:14:36;91392.69;;;3.78;63.48
82388;BME280;72027;47.420;9.310;2024-02-26T04:17:04;91392.09;;;3.74;65.03
82388;BME280;72027;47.420;9.310;2024-02-26T04:19:32;91387.28;;;3.69;64.33
82388;BME280;72027;47.420;9.310;2024-02-26T04:22:01;91389.91;;;3.63;64.01
82388;BME280;72027;47.420;9.310;2024-02-26T04:24:29;91391.81;;;3.57;62.64
82388;BME280;72027;47.420;9.310;2024-02-26T04:26:57;91388.50;;;3.53;63.44
82388;BME280;72027;47.420;9.310;2024-02-26T04:29:24;91388.38;;;3.47;63.02
82388;BME280;72027;47.420;9.310;2024-02-26T04:31:52;91383.09;;;3.44;62.80
82388;BME280;72027;47.420;9.310;2024-02-26T04:34:20;91393.00;;;3.41;63.28
82388;BME280;72027;47.420;9.310;2024-02-26T04:36:48;91394.72;;;3.39;63.76
82388;BME280;72027;47.420;9.310;2024-02-26T04:39:17;91408.09;;;3.37;63.34
82388;BME280;72027;47.420;9.310;2024-02-26T04:41:45;91398.09;;;3.34;62.59
82388;BME280;72027;47.420;9.310;2024-02-26T04:44:12;91406.50;;;3.30;63.46
82388;BME280;72027;47.420;9.310;2024-02-26T04:46:40;91417.44;;;3.30;63.19
82388;BME280;72027;47.420;9.310;2024-02-26T04:49:08;91411.97;;;3.30;62.23
82388;BME280;72027;47.420;9.310;2024-02-26T04:51:36;91411.47;;;3.31;62.52
82388;BME280;72027;47.420;9.310;2024-02-26T04:54:04;91425.47;;;3.34;62.55
82388;BME280;72027;47.420;9.310;2024-02-26T04:56:36;91427.56;;;3.39;62.01
82388;BME280;72027;47.420;9.310;2024-02-26T04:59:04;91436.81;;;3.41;62.49
82388;BME280;72027;47.420;9.310;2024-02-26T05:01:31;91443.38;;;3.35;63.21
82388;BME280;72027;47.420;9.310;2024-02-26T05:03:59;91454.22;;;3.29;61.75
82388;BME280;72027;47.420;9.310;2024-02-26T05:06:27;91451.31;;;3.33;62.60
82388;BME280;72027;47.420;9.310;2024-02-26T05:08:55;91451.47;;;3.29;63.37
82388;BME280;72027;47.420;9.310;2024-02-26T05:11:22;91450.91;;;3.25;63.70
82388;BME280;72027;47.420;9.310;2024-02-26T05:13:52;91453.19;;;3.26;62.70
82388;BME280;72027;47.420;9.310;2024-02-26T05:16:20;91458.34;;;3.24;63.16
82388;BME280;72027;47.420;9.310;2024-02-26T05:18:51;91458.25;;;3.19;62.89
82388;BME280;72027;47.420;9.310;2024-02-26T05:21:18;91464.66;;;3.16;63.29
82388;BME280;72027;47.420;9.310;2024-02-26T05:23:46;91475.28;;;3.14;63.63
82388;BME280;72027;47.420;9.310;2024-02-26T05:26:19;91494.44;;;3.14;63.58
82388;BME280;72027;47.420;9.310;2024-02-26T05:28:47;91502.28;;;3.06;63.84
82388;BME280;72027;47.420;9.310;2024-02-26T05:31:17;91503.66;;;3.01;64.79
82388;BME280;72027;47.420;9.310;2024-02-26T05:33:45;91504.28;;;2.96;64.28
82388;BME280;72027;47.420;9.310;2024-02-26T05:36:18;91499.91;;;2.90;64.65
82388;BME280;72027;47.420;9.310;2024-02-26T05:38:46;91506.31;;;2.86;65.05
82388;BME280;72027;47.420;9.310;2024-02-26T05:41:15;91506.78;;;2.85;65.49
82388;BME280;72027;47.420;9.310;2024-02-26T05:43:43;91497.97;;;2.81;65.83
82388;BME280;72027;47.420;9.310;2024-02-26T05:46:10;91494.19;;;2.78;66.02
82388;BME280;72027;47.420;9.310;2024-02-26T05:48:39;91503.31;;;2.75;66.38
82388;BME280;72027;47.420;9.310;2024-02-26T05:51:07;91516.38;;;2.71;66.02
82388;BME280;72027;47.420;9.310;2024-02-26T05:53:36;91517.03;;;2.66;66.87
82388;BME280;72027;47.420;9.310;2024-02-26T05:56:05;91516.88;;;2.60;67.49
82388;BME280;72027;47.420;9.310;2024-02-26T05:58:33;91518.28;;;2.56;66.92
82388;BME280;72027;47.420;9.310;2024-02-26T06:01:01;91512.22;;;2.52;67.27
82388;BME280;72027;47.420;9.310;2024-02-26T06:03:29;91521.03;;;2.47;68.30
82388;BME280;72027;47.420;9.310;2024-02-26T06:05:58;91530.63;;;2.42;68.16
82388;BME280;72027;47.420;9.310;2024-02-26T06:08:26;91538.69;;;2.36;68.39
82388;BME280;72027;47.420;9.310;2024-02-26T06:10:54;91530.50;;;2.27;70.23
82388;BME280;72027;47.420;9.310;2024-02-26T06:13:21;91534.16;;;2.15;70.30
82388;BME280;72027;47.420;9.310;2024-02-26T06:15:49;91533.88;;;2.04;72.35
82388;BME280;72027;47.420;9.310;2024-02-26T06:18:17;91538.16;;;1.95;72.17
82388;BME280;72027;47.420;9.310;2024-02-26T06:20:45;91548.19;;;1.89;71.43
82388;BME280;72027;47.420;9.310;2024-02-26T06:23:14;91553.19;;;1.82;73.96
82388;BME280;72027;47.420;9.310;2024-02-26T06:25:42;91554.97;;;1.75;72.88
82388;BME280;72027;47.420;9.310;2024-02-26T06:28:10;91566.81;;;1.72;73.29
82388;BME280;72027;47.420;9.310;2024-02-26T06:30:37;91564.25;;;1.69;72.43
82388;BME280;72027;47.420;9.310;2024-02-26T06:33:05;91566.34;;;1.65;73.21
82388;BME280;72027;47.420;9.310;2024-02-26T06:35:33;91569.84;;;1.56;74.11
82388;BME280;72027;47.420;9.310;2024-02-26T06:38:01;91575.91;;;1.51;74.38
82388;BME280;72027;47.420;9.310;2024-02-26T06:40:30;91576.50;;;1.46;73.43
82388;BME280;72027;47.420;9.310;2024-02-26T06:42:58;91573.63;;;1.40;73.84
82388;BME280;72027;47.420;9.310;2024-02-26T06:45:25;91567.84;;;1.38;73.58
82388;BME280;72027;47.420;9.310;2024-02-26T06:47:53;91576.50;;;1.37;75.16
82388;BME280;72027;47.420;9.310;2024-02-26T06:50:22;91574.22;;;1.35;74.93
82388;BME280;72027;47.420;9.310;2024-02-26T06:52:50;91571.47;;;1.35;74.70
82388;BME280;72027;47.420;9.310;2024-02-26T06:55:17;91574.84;;;1.39;74.48
82388;BME280;72027;47.420;9.310;2024-02-26T06:57:47;91569.97;;;1.43;74.25
82388;BME280;72027;47.420;9.310;2024-02-26T07:00:15;91570.13;;;1.49;74.39
82388;BME280;72027;47.420;9.310;2024-02-26T07:02:43;91576.53;;;1.55;73.88
82388;BME280;72027;47.420;9.310;2024-02-26T07:05:11;91565.44;;;1.59;74.15
82388;BME280;72027;47.420;9.310;2024-02-26T07:07:39;91572.13;;;1.67;74.00
82388;BME280;72027;47.420;9.310;2024-02-26T07:10:07;91565.31;;;1.71;74.15
82388;BME280;72027;47.420;9.310;2024-02-26T07:12:35;91570.91;;;1.77;74.06
82388;BME280;72027;47.420;9.310;2024-02-26T07:15:07;91568.03;;;1.81;74.38
82388;BME280;72027;47.420;9.310;2024-02-26T07:17:37;91560.16;;;1.83;73.71
82388;BME280;72027;47.420;9.310;2024-02-26T07:20:09;91568.50;;;1.88;73.48
82388;BME280;72027;47.420;9.310;2024-02-26T07:22:38;91572.59;;;1.93;73.64
82388;BME280;72027;47.420;9.310;2024-02-26T07:25:06;91558.31;;;1.98;73.75
82388;BME280;72027;47.420;9.310;2024-02-26T07:27:35;91569.84;;;2.02;74.38
82388;BME280;72027;47.420;9.310;2024-02-26T07:30:04;91568.03;;;2.08;74.87
82388;BME280;72027;47.420;9.310;2024-02-26T07:32:33;91573.94;;;2.16;74.81
82388;BME280;72027;47.420;9.310;2024-02-26T07:35:01;91573.00;;;2.28;73.62
82388;BME280;72027;47.420;9.310;2024-02-26T07:37:28;91566.13;;;2.42;73.12
82388;BME280;72027;47.420;9.310;2024-02-26T07:39:56;91558.66;;;2.61;73.49
82388;BME280;72027;47.420;9.310;2024-02-26T07:42:24;91560.88;;;2.81;72.87
82388;BME280;72027;47.420;9.310;2024-02-26T07:44:52;91566.09;;;3.03;71.78
82388;BME280;72027;47.420;9.310;2024-02-26T07:47:22;91563.56;;;3.23;72.60
82388;BME280;72027;47.420;9.310;2024-02-26T07:49:51;91558.00;;;3.42;70.93
82388;BME280;72027;47.420;9.310;2024-02-26T07:52:19;91553.44;;;3.63;70.01
82388;BME280;72027;47.420;9.310;2024-02-26T07:54:47;91556.63;;;3.85;69.52
82388;BME280;72027;47.420;9.310;2024-02-26T07:57:14;91555.06;;;4.08;69.30
82388;BME280;72027;47.420;9.310;2024-02-26T07:59:43;91558.22;;;4.31;66.95
82388;BME280;72027;47.420;9.310;2024-02-26T08:02:16;91548.59;;;4.50;66.00
82388;BME280;72027;47.420;9.310;2024-02-26T08:04:44;91547.53;;;4.62;65.20
82388;BME280;72027;47.420;9.310;2024-02-26T08:07:13;91545.38;;;4.67;65.24
82388;BME280;72027;47.420;9.310;2024-02-26T08:09:41;91553.69;;;4.72;65.45
82388;BME280;72027;47.420;9.310;2024-02-26T08:12:09;91557.47;;;4.75;64.69
82388;BME280;72027;47.420;9.310;2024-02-26T08:14:37;91540.06;;;4.78;64.54
82388;BME280;72027;47.420;9.310;2024-02-26T08:17:05;91531.91;;;4.83;64.85
82388;BME280;72027;47.420;9.310;2024-02-26T08:19:33;91533.53;;;4.90;65.16
82388;BME280;72027;47.420;9.310;2024-02-26T08:22:02;91532.66;;;4.99;65.25
82388;BME280;72027;47.420;9.310;2024-02-26T08:24:32;91537.94;;;5.02;65.34
82388;BME280;72027;47.420;9.310;2024-02-26T08:27:00;91528.78;;;5.05;65.15
82388;BME280;72027;47.420;9.310;2024-02-26T08:29:27;91530.38;;;5.12;65.11
82388;BME280;72027;47.420;9.310;2024-02-26T08:31:55;91533.25;;;5.23;63.60
82388;BME280;72027;47.420;9.310;2024-02-26T08:34:23;91536.03;;;5.44;62.73
82388;BME280;72027;47.420;9.310;2024-02-26T08:36:51;91537.34;;;5.69;61.54
82388;BME280;72027;47.420;9.310;2024-02-26T08:39:19;91535.31;;;5.84;61.34
82388;BME280;72027;47.420;9.310;2024-02-26T08:41:48;91532.78;;;6.01;61.54
82388;BME280;72027;47.420;9.310;2024-02-26T08:44:16;91532.91;;;6.12;61.26
82388;BME280;72027;47.420;9.310;2024-02-26T08:46:44;91529.13;;;6.30;60.46
82388;BME280;72027;47.420;9.310;2024-02-26T08:49:12;91532.34;;;6.55;59.96
82388;BME280;72027;47.420;9.310;2024-02-26T08:51:41;91532.38;;;6.87;59.47
82388;BME280;72027;47.420;9.310;2024-02-26T08:54:09;91544.53;;;7.06;57.95
82388;BME280;72027;47.420;9.310;2024-02-26T08:56:37;91550.81;;;7.12;58.41
82388;BME280;72027;47.420;9.310;2024-02-26T08:59:07;91553.88;;;7.20;57.99
82388;BME280;72027;47.420;9.310;2024-02-26T09:01:34;91553.69;;;7.23;58.02
82388;BME280;72027;47.420;9.310;2024-02-26T09:04:02;91557.91;;;7.19;57.52
82388;BME280;72027;47.420;9.310;2024-02-26T09:06:30;91553.81;;;7.09;57.71
82388;BME280;72027;47.420;9.310;2024-02-26T09:08:58;91545.72;;;6.99;59.04
82388;BME280;72027;47.420;9.310;2024-02-26T09:11:27;91559.41;;;6.88;58.55
82388;BME280;72027;47.420;9.310;2024-02-26T09:13:55;91563.31;;;6.76;57.82
82388;BME280;72027;47.420;9.310;2024-02-26T09:16:24;91561.22;;;6.65;58.13
82388;BME280;72027;47.420;9.310;2024-02-26T09:18:52;91556.66;;;6.62;58.53
82388;BME280;72027;47.420;9.310;2024-02-26T09:21:20;91551.38;;;6.58;58.20
82388;BME280;72027;47.420;9.310;2024-02-26T09:23:50;91559.09;;;6.54;59.18
82388;BME280;72027;47.420;9.310;2024-02-26T09:26:18;91552.81;;;6.54;59.25
82388;BME280;72027;47.420;9.310;2024-02-26T09:28:46;91553.03;;;6.50;59.84
82388;BME280;72027;47.420;9.310;2024-02-26T09:31:15;91557.25;;;6.46;60.18
82388;BME280;72027;47.420;9.310;2024-02-26T09:33:44;91557.69;;;6.38;60.17
82388;BME280;72027;47.420;9.310;2024-02-26T09:36:12;91564.13;;;6.35;60.96
82388;BME280;72027;47.420;9.310;2024-02-26T09:38:40;91583.38;;;6.35;61.23
82388;BME280;72027;47.420;9.310;2024-02-26T09:41:15;91580.38;;;6.33;60.36
82388;BME280;72027;47.420;9.310;2024-02-26T09:43:44;91582.84;;;6.31;60.71
82388;BME280;72027;47.420;9.310;2024-02-26T09:46:12;91577.34;;;6.31;60.90
82388;BME280;72027;47.420;9.310;2024-02-26T09:48:44;91586.63;;;6.34;61.16
82388;BME280;72027;47.420;9.310;2024-02-26T09:51:14;91582.16;;;6.36;61.57
82388;BME280;72027;47.420;9.310;2024-02-26T09:53:43;91581.41;;;6.36;62.01
82388;BME280;72027;47.420;9.310;2024-02-26T09:56:12;91588.88;;;6.35;62.29
82388;BME280;72027;47.420;9.310;2024-02-26T09:58:41;91589.16;;;6.37;62.83
82388;BME280;72027;47.420;9.310;2024-02-26T10:01:13;91585.19;;;6.38;62.93
82388;BME280;72027;47.420;9.310;2024-02-26T10:03:48;91598.16;;;6.38;63.02
82388;BME280;72027;47.420;9.310;2024-02-26T10:06:19;91591.63;;;6.35;62.67
82388;BME280;72027;47.420;9.310;2024-02-26T10:08:47;91597.34;;;6.32;63.05
82388;BME280;72027;47.420;9.310;2024-02-26T10:11:16;91593.84;;;6.31;62.65
82388;BME280;72027;47.420;9.310;2024-02-26T10:13:44;91595.50;;;6.23;63.67
82388;BME280;72027;47.420;9.310;2024-02-26T10:16:12;91594.28;;;6.24;63.92
82388;BME280;72027;47.420;9.310;2024-02-26T10:18:48;91592.34;;;6.30;63.88
82388;BME280;72027;47.420;9.310;2024-02-26T10:21:22;91597.69;;;6.39;63.43
82388;BME280;72027;47.420;9.310;2024-02-26T10:23:50;91600.56;;;6.51;63.64
82388;BME280;72027;47.420;9.310;2024-02-26T10:26:19;91603.13;;;6.54;63.15
82388;BME280;72027;47.420;9.310;2024-02-26T10:28:47;91603.16;;;6.60;63.15
82388;BME280;72027;47.420;9.310;2024-02-26T10:31:17;91602.41;;;6.59;62.83
82388;BME280;72027;47.420;9.310;2024-02-26T10:33:45;91607.69;;;6.63;63.34
82388;BME280;72027;47.420;9.310;2024-02-26T10:36:14;91604.25;;;6.68;63.78
82388;BME280;72027;47.420;9.310;2024-02-26T10:38:42;91606.78;;;6.72;63.40
82388;BME280;72027;47.420;9.310;2024-02-26T10:41:13;91618.75;;;6.69;62.42
82388;BME280;72027;47.420;9.310;2024-02-26T10:43:42;91610.44;;;6.63;62.27
82388;BME280;72027;47.420;9.310;2024-02-26T10:46:10;91614.88;;;6.55;61.13
82388;BME280;72027;47.420;9.310;2024-02-26T10:48:38;91620.56;;;6.51;61.14
82388;BME280;72027;47.420;9.310;2024-02-26T10:51:09;91620.03;;;6.47;60.74
82388;BME280;72027;47.420;9.310;2024-02-26T10:53:40;91626.50;;;6.44;61.27
82388;BME280;72027;47.420;9.310;2024-02-26T10:56:10;91639.22;;;6.42;60.68
82388;BME280;72027;47.420;9.310;2024-02-26T10:58:39;91638.66;;;6.37;60.84
82388;BME280;72027;47.420;9.310;2024-02-26T11:01:08;91641.13;;;6.35;60.91
82388;BME280;72027;47.420;9.310;2024-02-26T11:03:38;91646.63;;;6.35;60.62
82388;BME280;72027;47.420;9.310;2024-02-26T11:06:06;91639.63;;;6.34;60.52
82388;BME280;72027;47.420;9.310;2024-02-26T11:08:37;91637.34;;;6.33;61.19
82388;BME280;72027;47.420;9.310;2024-02-26T11:11:07;91640.38;;;6.35;60.91
82388;BME280;72027;47.420;9.310;2024-02-26T11:13:36;91639.34;;;6.32;61.43
82388;BME280;72027;47.420;9.310;2024-02-26T11:16:09;91644.59;;;6.30;61.16
82388;BME280;72027;47.420;9.310;2024-02-26T11:18:39;91641.28;;;6.26;60.91
82388;BME280;72027;47.420;9.310;2024-02-26T11:21:10;91640.53;;;6.26;61.72
82388;BME280;72027;47.420;9.310;2024-02-26T11:23:38;91641.28;;;6.26;62.41
82388;BME280;72027;47.420;9.310;2024-02-26T11:26:10;91629.03;;;6.27;63.02
82388;BME280;72027;47.420;9.310;2024-02-26T11:28:38;91619.56;;;6.28;63.88
82388;BME280;72027;47.420;9.310;2024-02-26T11:31:07;91628.56;;;6.29;64.76
82388;BME280;72027;47.420;9.310;2024-02-26T11:33:36;91621.56;;;6.28;64.99
82388;BME280;72027;47.420;9.310;2024-02-26T11:36:08;91614.53;;;6.27;64.63
82388;BME280;72027;47.420;9.310;2024-02-26T11:38:36;91598.78;;;6.27;65.49
82388;BME280;72027;47.420;9.310;2024-02-26T11:41:05;91581.56;;;6.27;63.89
82388;BME280;72027;47.420;9.310;2024-02-26T11:43:53;91596.03;;;6.27;63.99
82388;BME280;72027;47.420;9.310;2024-02-26T11:46:28;91592.50;;;6.21;65.46
82388;BME280;72027;47.420;9.310;2024-02-26T11:49:01;91609.72;;;6.22;62.55
82388;BME280;72027;47.420;9.310;2024-02-26T11:51:33;91598.00;;;6.21;63.71
82388;BME280;72027;47.420;9.310;2024-02-26T11:54:01;91597.03;;;6.24;61.59
82388;BME280;72027;47.420;9.310;2024-02-26T11:56:29;91583.88;;;6.34;60.84
82388;BME280;72027;47.420;9.310;2024-02-26T11:59:04;91592.25;;;6.45;61.10
82388;BME280;72027;47.420;9.310;2024-02-26T12:01:43;91598.84;;;6.53;61.41
82388;BME280;72027;47.420;9.310;2024-02-26T12:04:13;91602.41;;;6.59;61.45
82388;BME280;72027;47.420;9.310;2024-02-26T12:06:46;91602.47;;;6.65;62.16
82388;BME280;72027;47.420;9.310;2024-02-26T12:09:36;91603.56;;;6.73;61.96
82388;BME280;72027;47.420;9.310;2024-02-26T12:12:05;91616.38;;;6.82;61.54
82388;BME280;72027;47.420;9.310;2024-02-26T12:14:37;91599.22;;;6.93;62.44
82388;BME280;72027;47.420;9.310;2024-02-26T12:17:06;91601.78;;;7.02;62.47
82388;BME280;72027;47.420;9.310;2024-02-26T12:19:35;91608.41;;;7.10;62.36
82388;BME280;72027;47.420;9.310;2024-02-26T12:22:08;91600.19;;;7.16;61.85
82388;BME280;72027;47.420;9.310;2024-02-26T12:24:36;91599.72;;;7.23;61.59
82388;BME280;72027;47.420;9.310;2024-02-26T12:27:04;91604.03;;;7.30;61.56
82388;BME280;72027;47.420;9.310;2024-02-26T12:29:32;91603.81;;;7.33;59.33
82388;BME280;72027;47.420;9.310;2024-02-26T12:32:03;91610.63;;;7.38;60.91
82388;BME280;72027;47.420;9.310;2024-02-26T12:34:33;91608.16;;;7.45;63.57
82388;BME280;72027;47.420;9.310;2024-02-26T12:37:02;91614.97;;;7.50;60.90
82388;BME280;72027;47.420;9.310;2024-02-26T12:39:29;91619.75;;;7.55;60.66
82388;BME280;72027;47.420;9.310;2024-02-26T12:41:58;91614.28;;;7.61;61.08
82388;BME280;72027;47.420;9.310;2024-02-26T12:44:26;91620.09;;;7.68;62.41
82388;BME280;72027;47.420;9.310;2024-02-26T12:47:00;91603.06;;;7.70;62.43
82388;BME280;72027;47.420;9.310;2024-02-26T12:49:28;91604.38;;;7.75;62.84
82388;BME280;72027;47.420;9.310;2024-02-26T12:51:56;91603.09;;;7.76;63.29
82388;BME280;72027;47.420;9.310;2024-02-26T12:54:28;91601.59;;;7.75;64.29
82388;BME280;72027;47.420;9.310;2024-02-26T12:56:56;91602.84;;;7.73;64.35
82388;BME280;72027;47.420;9.310;2024-02-26T12:59:24;91606.84;;;7.72;63.59
82388;BME280;72027;47.420;9.310;2024-02-26T13:01:52;91607.06;;;7.63;63.02
82388;BME280;72027;47.420;9.310;2024-02-26T13:04:20;91607.75;;;7.58;63.48
82388;BME280;72027;47.420;9.310;2024-02-26T13:06:49;91600.69;;;7.52;63.99
82388;BME280;72027;47.420;9.310;2024-02-26T13:09:17;91609.19;;;7.48;63.75
82388;BME280;72027;47.420;9.310;2024-02-26T13:11:45;91606.91;;;7.46;63.95
82388;BME280;72027;47.420;9.310;2024-02-26T13:14:19;91610.19;;;7.45;64.13
82388;BME280;72027;47.420;9.310;2024-02-26T13:16:54;91605.63;;;7.42;63.95
82388;BME280;72027;47.420;9.310;2024-02-26T13:19:22;91605.38;;;7.40;64.48